Time;durP1;ratioP1;P1;durP2;ratioP2;P2;SDS_P1;SDS_P2;PMS_P1;PMS_P2;Temp;Humidity;BMP_temperature;BMP_pressure;BME280_temperature;BME280_humidity;BME280_pressure;Samples;Min_cycle;Max_cycle;Signal;HPM_P1;HPM_P2
2022/05/09 00:00:26;;;;;;;19.65;5.05;;;3.60;99.90;;;;;;5053614;28;20123;-81
2022/05/09 00:02:52;;;;;;;16.63;5.47;;;3.60;99.90;;;;;;5053487;28;20304;-81
2022/05/09 00:05:20;;;;;;;12.90;4.80;;;3.80;99.90;;;;;;5053652;28;20098;-81
2022/05/09 00:07:46;;;;;;;14.77;5.03;;;3.60;99.90;;;;;;5053506;28;20444;-81
2022/05/09 00:10:14;;;;;;;14.80;5.22;;;3.60;99.90;;;;;;5053707;28;20108;-81
2022/05/09 00:12:40;;;;;;;10.77;4.88;;;3.70;99.90;;;;;;5053491;28;20036;-81
2022/05/09 00:15:06;;;;;;;14.63;5.05;;;3.90;99.90;;;;;;5052860;28;20029;-81
2022/05/09 00:17:32;;;;;;;11.45;4.78;;;3.80;99.90;;;;;;5053403;28;20365;-80
2022/05/09 00:19:57;;;;;;;13.57;4.63;;;3.60;99.90;;;;;;5053335;28;20032;-80
2022/05/09 00:22:23;;;;;;;13.63;4.75;;;3.80;99.90;;;;;;5053060;28;20396;-79
2022/05/09 00:24:49;;;;;;;10.15;4.43;;;3.50;99.90;;;;;;5053190;28;20140;-80
2022/05/09 00:27:16;;;;;;;10.73;4.75;;;3.30;99.90;;;;;;5051225;28;20104;-81
2022/05/09 00:29:43;;;;;;;11.85;4.15;;;3.40;99.90;;;;;;5052743;28;20021;-82
2022/05/09 00:32:09;;;;;;;9.95;3.92;;;3.30;99.90;;;;;;5052979;28;20017;-81
2022/05/09 00:34:37;;;;;;;9.90;4.20;;;3.50;99.90;;;;;;5052859;28;20031;-81
2022/05/09 00:37:03;;;;;;;12.77;4.70;;;3.60;99.90;;;;;;5035081;28;20108;-81
2022/05/09 00:39:29;;;;;;;14.35;4.18;;;3.60;1.00;;;;;;5053124;28;20053;-81
2022/05/09 00:42:05;;;;;;;13.75;4.63;;;3.40;1.00;;;;;;5052954;28;20057;-81
2022/05/09 00:44:30;;;;;;;14.98;4.20;;;3.40;1.00;;;;;;5052872;28;20033;-81
2022/05/09 00:46:56;;;;;;;12.05;4.18;;;3.20;1.00;;;;;;5052087;28;20025;-81
2022/05/09 00:49:33;;;;;;;9.98;4.00;;;3.20;1.00;;;;;;5052570;28;20377;-81
2022/05/09 00:52:20;;;;;;;16.55;4.22;;;3.00;1.00;;;;;;5051746;28;20115;-81
2022/05/09 00:54:56;;;;;;;8.20;3.58;;;2.90;1.00;;;;;;5034259;28;20071;-81
2022/05/09 00:57:50;;;;;;;13.18;3.83;;;2.90;1.00;;;;;;5034818;28;20029;-81
2022/05/09 01:00:19;;;;;;;11.82;3.85;;;2.90;1.00;;;;;;5052846;28;20021;-81
2022/05/09 01:02:48;;;;;;;14.23;4.30;;;2.80;1.00;;;;;;5032668;28;20017;-81
2022/05/09 01:05:15;;;;;;;10.07;3.88;;;2.90;1.00;;;;;;5032661;28;20041;-81
2022/05/09 01:07:42;;;;;;;9.35;3.72;;;2.80;1.00;;;;;;5032475;28;20025;-81
2022/05/09 01:10:14;;;;;;;9.20;3.50;;;2.70;1.00;;;;;;5032525;28;20025;-81
2022/05/09 01:12:42;;;;;;;9.95;4.00;;;2.70;1.00;;;;;;5036961;28;20107;-81
2022/05/09 01:15:13;;;;;;;10.57;3.80;;;2.80;1.00;;;;;;5080660;23;20060;-77
2022/05/09 01:17:39;;;;;;;;;;;2.80;1.00;;;;;;5068230;28;20029;-76
2022/05/09 01:20:06;;;;;;;11.60;4.13;;;3.00;1.00;;;;;;5067448;28;19972;-76
2022/05/09 01:22:34;;;;;;;10.77;3.85;;;3.10;1.00;;;;;;5070449;28;20080;-75
2022/05/09 01:25:03;;;;;;;8.90;3.58;;;3.10;1.00;;;;;;5070370;28;20028;-76
2022/05/09 01:27:34;;;;;;;13.43;3.85;;;3.20;25.30;;;;;;5069078;28;20021;-75
2022/05/09 01:30:12;;;;;;;9.50;3.47;;;3.20;49.50;;;;;;5070154;28;20059;-76
2022/05/09 01:32:41;;;;;;;12.00;3.45;;;3.30;72.90;;;;;;5067745;28;20059;-77
2022/05/09 01:35:24;;;;;;;12.48;3.30;;;3.40;84.80;;;;;;5068883;28;20198;-75
2022/05/09 01:37:54;;;;;;;4.68;2.20;;;3.30;95.70;;;;;;5071916;28;20085;-76
2022/05/09 01:40:20;;;;;;;7.93;2.55;;;3.20;99.90;;;;;;5072816;28;20111;-76
2022/05/09 01:42:46;;;;;;;9.73;3.20;;;3.20;99.90;;;;;;5073085;28;20021;-76
2022/05/09 01:45:12;;;;;;;7.53;3.35;;;3.20;99.90;;;;;;5073280;28;20033;-76
2022/05/09 01:50:23;;;;;;;9.70;4.00;;;3.30;99.90;;;;;;5073110;28;20097;-76
2022/05/09 01:52:50;;;;;;;7.75;3.88;;;3.50;99.90;;;;;;5071519;28;20021;-75
2022/05/09 01:55:15;;;;;;;6.70;3.30;;;3.50;99.90;;;;;;5051891;28;20048;-77
2022/05/09 01:57:41;;;;;;;6.13;2.88;;;3.40;99.90;;;;;;5071217;28;20096;-75
2022/05/09 02:00:08;;;;;;;9.23;3.28;;;3.30;99.90;;;;;;5071472;28;20032;-76
2022/05/09 02:02:34;;;;;;;13.05;3.25;;;3.30;99.90;;;;;;5070877;28;20056;-76
2022/05/09 02:05:00;;;;;;;5.78;2.47;;;3.30;99.90;;;;;;5070016;28;20017;-75
2022/05/09 02:07:26;;;;;;;8.55;3.15;;;3.20;99.90;;;;;;5070407;28;20060;-75
2022/05/09 02:09:52;;;;;;;9.05;3.05;;;3.30;99.90;;;;;;5071844;28;20021;-75
2022/05/09 02:12:19;;;;;;;7.03;2.85;;;3.30;99.90;;;;;;5055112;28;20032;-75
2022/05/09 02:14:46;;;;;;;7.50;3.08;;;3.40;99.90;;;;;;5073332;28;20049;-76
2022/05/09 02:17:12;;;;;;;7.43;3.45;;;3.40;99.90;;;;;;5071604;28;20058;-75
2022/05/09 02:19:39;;;;;;;8.40;2.90;;;3.40;99.90;;;;;;5071297;28;20036;-76
2022/05/09 02:22:05;;;;;;;3.75;2.63;;;3.30;99.90;;;;;;5072560;28;20021;-75
2022/05/09 02:24:31;;;;;;;6.43;2.97;;;3.10;99.90;;;;;;5055212;28;20036;-75
2022/05/09 02:26:57;;;;;;;8.00;3.08;;;3.00;99.90;;;;;;5053530;28;20021;-75
2022/05/09 02:29:24;;;;;;;8.75;3.08;;;2.90;99.90;;;;;;5053153;28;20030;-75
2022/05/09 02:31:50;;;;;;;5.85;3.08;;;3.20;99.90;;;;;;5053342;28;20025;-75
2022/05/09 02:34:16;;;;;;;7.63;3.13;;;3.30;99.90;;;;;;5059834;28;20029;-75
2022/05/09 02:36:41;;;;;;;6.47;2.88;;;3.20;99.90;;;;;;5070372;28;20797;-75
2022/05/09 02:39:07;;;;;;;6.72;3.13;;;3.20;99.90;;;;;;5071749;28;20408;-76
2022/05/09 02:41:34;;;;;;;7.60;3.00;;;3.30;99.90;;;;;;5073735;28;20021;-75
2022/05/09 02:43:59;;;;;;;5.97;3.20;;;3.30;99.90;;;;;;5074154;28;20036;-77
2022/05/09 02:46:25;;;;;;;6.00;2.90;;;3.20;99.90;;;;;;5078068;28;20037;-77
2022/05/09 02:48:51;;;;;;;11.02;3.72;;;3.20;99.90;;;;;;5077211;28;20055;-75
2022/05/09 02:51:17;;;;;;;9.18;3.85;;;3.40;99.90;;;;;;5077860;28;20029;-75
2022/05/09 02:53:43;;;;;;;14.30;3.92;;;3.40;99.90;;;;;;5076550;28;20048;-75
2022/05/09 02:56:10;;;;;;;9.98;3.30;;;3.30;99.90;;;;;;5075753;28;20057;-76
2022/05/09 02:58:35;;;;;;;8.95;3.72;;;3.30;99.90;;;;;;5075615;28;20021;-76
2022/05/09 03:01:01;;;;;;;13.35;3.85;;;3.30;99.90;;;;;;5055245;28;20036;-75
2022/05/09 03:06:12;;;;;;;13.65;4.47;;;3.60;99.90;;;;;;5054127;28;20060;-75
2022/05/09 03:08:38;;;;;;;7.93;3.80;;;3.80;99.90;;;;;;5053464;28;20025;-76
2022/05/09 03:11:03;;;;;;;11.80;3.88;;;3.60;99.90;;;;;;5054901;28;20049;-77
2022/05/09 03:13:29;;;;;;;10.18;3.75;;;3.50;99.90;;;;;;5054143;28;20033;-75
2022/05/09 03:15:55;;;;;;;9.15;3.60;;;3.40;99.90;;;;;;5053509;28;20025;-75
2022/05/09 03:18:23;;;;;;;8.45;3.20;;;3.30;99.90;;;;;;5051583;28;20018;-76
2022/05/09 03:20:49;;;;;;;9.65;3.40;;;3.10;99.90;;;;;;5052451;28;20056;-76
2022/05/09 03:23:15;;;;;;;9.48;3.50;;;3.20;99.90;;;;;;5054027;28;20540;-76
2022/05/09 03:25:41;;;;;;;10.65;3.55;;;3.10;99.90;;;;;;5053058;28;20032;-75
2022/05/09 03:28:11;;;;;;;8.75;3.90;;;3.50;99.90;;;;;;5066929;28;20108;-75
2022/05/09 03:30:37;;;;;;;12.33;3.80;;;3.50;99.90;;;;;;5073344;28;20029;-76
2022/05/09 03:33:03;;;;;;;15.50;3.90;;;3.60;99.90;;;;;;5073023;28;20023;-75
2022/05/09 03:35:29;;;;;;;11.88;3.63;;;3.40;99.90;;;;;;5070608;28;20021;-76
2022/05/09 03:37:54;;;;;;;10.05;4.32;;;3.60;99.90;;;;;;5071916;28;20033;-75
2022/05/09 03:40:21;;;;;;;7.88;4.00;;;3.80;99.90;;;;;;5073074;28;20069;-75
2022/05/09 03:42:47;;;;;;;13.27;4.35;;;3.80;99.90;;;;;;5072558;28;20047;-75
2022/05/09 03:45:13;;;;;;;12.05;4.50;;;3.70;99.90;;;;;;5073817;28;20101;-75
2022/05/09 03:47:39;;;;;;;11.75;4.03;;;3.50;99.90;;;;;;5073873;28;20036;-76
2022/05/09 03:50:06;;;;;;;13.20;3.95;;;3.70;99.90;;;;;;5074967;28;20031;-76
2022/05/09 03:52:31;;;;;;;7.63;3.55;;;3.60;99.90;;;;;;5073664;28;20029;-76
2022/05/09 03:54:57;;;;;;;10.07;3.53;;;3.60;99.90;;;;;;5070282;28;20037;-75
2022/05/09 03:57:23;;;;;;;10.27;3.90;;;3.50;99.90;;;;;;5071985;28;20033;-75
2022/05/09 03:59:49;;;;;;;11.23;3.97;;;3.50;99.90;;;;;;5073348;28;20044;-76
2022/05/09 04:02:16;;;;;;;15.57;4.55;;;3.40;99.90;;;;;;5073016;28;20073;-76
2022/05/09 04:04:42;;;;;;;10.52;3.65;;;3.50;99.90;;;;;;5057507;28;20025;-76
2022/05/09 04:07:07;;;;;;;10.80;3.83;;;3.60;99.90;;;;;;5067168;28;20101;-76
2022/05/09 04:09:33;;;;;;;11.50;3.05;;;3.70;99.90;;;;;;5066922;28;20037;-77
2022/05/09 04:11:59;;;;;;;10.40;3.10;;;3.70;99.90;;;;;;5066489;28;20039;-76
2022/05/09 04:17:10;;;;;;;9.88;3.25;;;3.80;99.90;;;;;;5071139;28;20167;-77
2022/05/09 04:19:37;;;;;;;10.98;3.03;;;3.70;99.90;;;;;;5036715;28;20026;-77
2022/05/09 04:22:04;;;;;;;6.43;3.00;;;3.80;99.90;;;;;;5053279;28;20044;-76
2022/05/09 04:24:30;;;;;;;12.50;2.70;;;3.80;99.90;;;;;;5050474;28;20044;-77
2022/05/09 04:26:57;;;;;;;10.50;2.60;;;3.70;99.90;;;;;;5048043;28;20037;-76
2022/05/09 04:29:22;;;;;;;9.95;2.85;;;3.70;99.90;;;;;;5050136;28;20590;-76
2022/05/09 04:31:48;;;;;;;20.70;2.92;;;3.80;99.90;;;;;;5049874;28;20082;-78
2022/05/09 04:34:13;;;;;;;33.20;3.30;;;3.90;99.90;;;;;;5053308;28;20026;-77
2022/05/09 04:36:39;;;;;;;6.57;2.50;;;4.00;99.90;;;;;;5045003;28;20037;-76
2022/05/09 04:39:05;;;;;;;4.90;2.38;;;4.00;99.90;;;;;;5035635;28;20536;-77
2022/05/09 04:41:32;;;;;;;5.68;2.95;;;4.10;99.90;;;;;;5012966;28;20021;-77
2022/05/09 04:43:58;;;;;;;3.10;2.17;;;4.10;99.90;;;;;;5039309;28;20013;-77
2022/05/09 04:46:24;;;;;;;8.00;2.85;;;4.10;99.90;;;;;;5074522;28;20124;-77
2022/05/09 04:48:49;;;;;;;6.80;2.70;;;4.20;99.90;;;;;;5073007;28;20039;-77
2022/05/09 04:51:15;;;;;;;4.90;2.70;;;4.20;99.90;;;;;;5071282;28;20021;-77
2022/05/09 04:53:41;;;;;;;6.38;3.13;;;4.20;99.90;;;;;;5070372;28;20031;-77
2022/05/09 04:56:07;;;;;;;10.95;3.45;;;4.40;99.90;;;;;;5072607;28;20050;-78
2022/05/09 04:58:33;;;;;;;6.18;3.10;;;4.50;99.90;;;;;;5072592;28;20048;-77
2022/05/09 05:00:59;;;;;;;9.20;4.00;;;4.60;99.90;;;;;;5054908;28;20060;-77
2022/05/09 05:03:24;;;;;;;11.25;4.25;;;4.60;99.90;;;;;;5043757;28;20022;-79
2022/05/09 05:05:54;;;;;;;13.95;4.10;;;4.70;99.90;;;;;;5050989;28;20053;-78
2022/05/09 05:08:21;;;;;;;17.20;5.07;;;5.40;99.90;;;;;;5052920;28;20025;-79
2022/05/09 05:10:52;;;;;;;16.45;5.40;;;7.50;99.90;;;;;;5053152;28;20036;-78
2022/05/09 05:13:19;;;;;;;13.82;5.25;;;8.40;99.90;;;;;;5069695;28;20036;-78
2022/05/09 05:15:44;;;;;;;11.60;5.93;;;9.60;99.90;;;;;;5071862;28;20059;-78
2022/05/09 05:18:11;;;;;;;13.00;5.65;;;10.10;99.90;;;;;;5069769;28;20021;-79
2022/05/09 05:20:37;;;;;;;14.45;6.18;;;9.30;99.90;;;;;;5069012;28;20021;-78
2022/05/09 05:23:03;;;;;;;16.60;6.22;;;10.30;99.90;;;;;;5039353;28;20093;-79
2022/05/09 05:25:30;;;;;;;12.25;4.80;;;12.50;99.90;;;;;;5055170;28;20053;-79
2022/05/09 05:27:57;;;;;;;13.15;4.70;;;12.60;1.00;;;;;;5057067;28;20024;-79
2022/05/09 05:30:23;;;;;;;10.73;4.28;;;13.20;1.00;;;;;;5048924;28;20109;-78
2022/05/09 05:32:50;;;;;;;12.25;4.68;;;13.00;1.00;;;;;;5026910;28;20028;-78
2022/05/09 05:35:19;;;;;;;9.02;4.80;;;13.20;1.00;;;;;;5025773;28;20033;-78
2022/05/09 05:37:45;;;;;;;8.10;4.00;;;14.10;1.00;;;;;;5026198;28;20030;-78
2022/05/09 05:40:12;;;;;;;12.98;5.05;;;14.80;99.90;;;;;;5038200;28;20105;-78
2022/05/09 05:42:40;;;;;;;11.77;4.38;;;15.20;1.00;;;;;;5033670;28;20018;-78
2022/05/09 05:45:07;;;;;;;9.18;3.88;;;17.40;99.90;;;;;;5029324;28;20033;-78
2022/05/09 05:47:32;;;;;;;8.55;3.65;;;16.30;99.90;;;;;;5042703;28;20052;-78
2022/05/09 05:49:58;;;;;;;11.15;4.40;;;16.70;99.90;;;;;;5041411;28;20022;-79
2022/05/09 05:52:24;;;;;;;7.65;3.63;;;16.60;99.90;;;;;;5035864;28;20069;-79
2022/05/09 05:54:49;;;;;;;11.93;3.80;;;17.10;99.90;;;;;;5021511;28;20080;-79
2022/05/09 05:57:25;;;;;;;8.07;3.80;;;17.70;99.90;;;;;;5019221;28;20101;-80
2022/05/09 06:00:05;;;;;;;9.30;3.45;;;17.10;99.90;;;;;;5018361;28;20024;-79
2022/05/09 06:02:31;;;;;;;10.30;3.90;;;16.60;99.90;;;;;;5020455;28;20389;-79
2022/05/09 06:04:56;;;;;;;11.05;3.70;;;17.90;99.90;;;;;;5019171;28;20036;-79
2022/05/09 06:07:23;;;;;;;9.85;3.47;;;17.60;99.90;;;;;;5019229;28;20022;-79
2022/05/09 06:09:49;;;;;;;8.77;3.60;;;18.90;99.90;;;;;;5049455;28;20108;-79
2022/05/09 06:12:17;;;;;;;10.00;3.72;;;20.30;99.90;;;;;;5058225;28;20396;-79
2022/05/09 06:14:44;;;;;;;11.07;3.80;;;23.00;99.90;;;;;;5057822;28;20079;-79
2022/05/09 06:17:10;;;;;;;9.40;3.88;;;20.80;99.90;;;;;;5058097;28;20530;-79
2022/05/09 06:19:37;;;;;;;11.32;3.72;;;20.80;99.90;;;;;;5058202;28;20047;-79
2022/05/09 06:22:03;;;;;;;12.20;4.50;;;22.70;99.90;;;;;;5053082;28;20584;-79
2022/05/09 06:24:29;;;;;;;9.93;3.67;;;23.70;99.90;;;;;;5038272;28;20120;-79
2022/05/09 06:26:55;;;;;;;9.20;4.30;;;23.10;99.90;;;;;;5037951;28;20033;-79
2022/05/09 06:29:21;;;;;;;7.28;3.45;;;23.80;99.90;;;;;;5050038;28;20040;-79
2022/05/09 06:31:46;;;;;;;7.70;3.78;;;23.50;99.90;;;;;;5059888;28;20079;-79
2022/05/09 06:34:13;;;;;;;10.52;3.42;;;20.30;99.90;;;;;;5043584;28;20022;-80
2022/05/09 06:36:41;;;;;;;9.40;3.55;;;20.30;99.90;;;;;;5038921;28;20044;-80
2022/05/09 06:39:08;;;;;;;13.38;3.90;;;26.30;99.90;;;;;;5040380;28;20482;-80
2022/05/09 06:41:33;;;;;;;7.95;4.05;;;25.50;99.90;;;;;;5039010;28;20029;-80
2022/05/09 06:43:59;;;;;;;10.52;3.60;;;25.30;99.90;;;;;;5035332;28;20105;-80
2022/05/09 06:46:25;;;;;;;9.23;3.75;;;28.00;99.90;;;;;;5035383;28;20531;-80
2022/05/09 06:48:51;;;;;;;11.40;3.53;;;25.50;99.90;;;;;;5035498;28;20110;-80
2022/05/09 06:51:17;;;;;;;8.98;3.42;;;26.30;99.90;;;;;;5035253;28;20538;-80
2022/05/09 06:53:44;;;;;;;9.27;3.28;;;27.20;99.90;;;;;;5039419;28;20110;-81
2022/05/09 06:56:10;;;;;;;6.57;3.42;;;30.10;99.90;;;;;;5054338;28;20025;-80
2022/05/09 06:58:36;;;;;;;12.65;4.13;;;30.30;99.90;;;;;;5054043;28;20024;-81
2022/05/09 07:01:15;;;;;;;10.32;3.78;;;29.30;99.90;;;;;;5054025;28;20025;-81
2022/05/09 07:03:42;;;;;;;10.02;3.60;;;32.40;99.90;;;;;;5053930;28;20166;-81
2022/05/09 07:06:07;;;;;;;8.57;3.20;;;29.40;99.90;;;;;;5034290;28;20389;-81
2022/05/09 07:08:34;;;;;;;8.57;3.42;;;30.80;99.90;;;;;;5019393;28;20026;-81
2022/05/09 07:11:00;;;;;;;9.35;3.78;;;26.30;99.90;;;;;;5018190;28;20502;-81
2022/05/09 07:13:29;;;;;;;10.32;3.42;;;29.20;99.90;;;;;;5013408;28;20022;-81
2022/05/09 07:15:57;;;;;;;10.30;3.67;;;29.20;99.90;;;;;;5023316;28;20037;-81
2022/05/09 07:18:25;;;;;;;8.40;3.90;;;27.70;99.90;;;;;;5013844;28;20018;-81
2022/05/09 07:20:51;;;;;;;11.48;3.50;;;26.60;99.90;;;;;;5021170;28;20054;-81
2022/05/09 07:23:17;;;;;;;9.63;3.55;;;29.00;99.90;;;;;;5020242;28;20057;-81
2022/05/09 07:25:42;;;;;;;10.00;4.07;;;29.20;99.90;;;;;;5022838;28;20040;-82
2022/05/09 07:28:11;;;;;;;10.95;3.60;;;30.50;99.90;;;;;;5016013;28;20077;-81
2022/05/09 07:30:38;;;;;;;8.85;3.97;;;28.80;99.90;;;;;;5018973;28;20018;-81
2022/05/09 07:33:04;;;;;;;8.73;3.42;;;29.10;99.90;;;;;;5022378;28;20030;-82
2022/05/09 07:35:31;;;;;;;10.82;3.75;;;30.80;99.90;;;;;;5007604;28;20025;-81
2022/05/09 07:37:56;;;;;;;7.32;3.22;;;33.60;99.90;;;;;;5027452;28;20542;-81
2022/05/09 07:40:22;;;;;;;9.63;4.10;;;33.60;99.90;;;;;;5033750;28;20025;-81
2022/05/09 07:42:48;;;;;;;9.82;3.92;;;31.30;99.90;;;;;;5044866;28;20027;-81
2022/05/09 07:45:17;;;;;;;7.82;3.65;;;32.00;99.90;;;;;;5019289;28;20511;-81
2022/05/09 07:47:42;;;;;;;9.73;3.83;;;33.70;99.90;;;;;;5015346;28;20531;-81
2022/05/09 07:50:10;;;;;;;11.15;3.80;;;35.50;99.90;;;;;;5018771;28;20029;-82
2022/05/09 07:52:36;;;;;;;9.82;3.95;;;33.90;99.90;;;;;;5021613;28;20024;-80
2022/05/09 07:55:02;;;;;;;9.90;3.58;;;35.40;99.90;;;;;;5019059;28;20021;-80
2022/05/09 07:57:28;;;;;;;9.68;3.58;;;35.70;99.90;;;;;;5041622;28;20033;-80
2022/05/09 07:59:53;;;;;;;10.32;4.07;;;38.20;99.90;;;;;;5053762;28;20017;-80
2022/05/09 08:02:19;;;;;;;9.25;3.60;;;33.40;99.90;;;;;;5036422;28;20100;-80
2022/05/09 08:04:45;;;;;;;12.15;4.13;;;35.70;99.90;;;;;;5053483;28;20379;-80
2022/05/09 08:07:10;;;;;;;9.52;3.80;;;37.80;99.90;;;;;;5045088;28;20026;-80
2022/05/09 08:09:36;;;;;;;9.07;3.70;;;35.10;99.90;;;;;;5043877;28;20469;-80
2022/05/09 08:12:05;;;;;;;11.48;4.18;;;32.90;99.90;;;;;;5022307;28;20077;-80
2022/05/09 08:14:30;;;;;;;9.70;3.88;;;33.90;99.90;;;;;;5018602;28;20042;-80
2022/05/09 08:16:58;;;;;;;10.35;4.20;;;34.30;99.90;;;;;;5013015;28;20042;-80
2022/05/09 08:19:24;;;;;;;13.10;4.13;;;29.60;99.90;;;;;;5017988;28;20036;-80
2022/05/09 08:21:51;;;;;;;10.38;3.90;;;31.80;99.90;;;;;;5021543;28;20104;-80
2022/05/09 08:24:17;;;;;;;10.77;4.07;;;34.80;99.90;;;;;;5056496;28;20075;-81
2022/05/09 08:26:43;;;;;;;8.88;3.80;;;37.10;99.90;;;;;;5053995;28;20102;-81
2022/05/09 08:29:09;;;;;;;9.90;4.07;;;37.50;99.90;;;;;;5053246;28;20055;-81
2022/05/09 08:31:35;;;;;;;8.23;3.22;;;36.80;99.90;;;;;;5052802;28;20021;-81
2022/05/09 08:34:01;;;;;;;8.25;3.33;;;37.20;99.90;;;;;;5044921;28;20021;-81
2022/05/09 08:39:10;;;;;;;10.55;4.13;;;38.00;99.90;;;;;;5017929;28;20087;-81
2022/05/09 08:41:56;;;;;;;13.70;4.50;;;37.10;99.90;;;;;;5031674;28;20416;-82
2022/05/09 08:44:57;;;;;;;9.38;3.63;;;37.00;99.90;;;;;;5010738;28;20029;-82
2022/05/09 08:47:36;;;;;;;6.72;3.67;;;34.20;99.90;;;;;;5016321;28;20036;-81
2022/05/09 08:50:14;;;;;;;11.18;3.58;;;35.40;99.90;;;;;;5032722;28;20169;-81
2022/05/09 08:52:45;;;;;;;9.27;3.60;;;38.40;99.90;;;;;;5028788;28;20066;-81
2022/05/09 08:55:12;;;;;;;9.23;3.42;;;38.90;99.90;;;;;;5032332;28;20335;-81
2022/05/09 08:57:47;;;;;;;7.30;3.55;;;36.30;99.90;;;;;;5032963;28;20028;-82
2022/05/09 09:00:18;;;;;;;6.90;3.22;;;35.80;99.90;;;;;;5000541;28;20027;-82
2022/05/09 09:02:56;;;;;;;9.85;3.42;;;37.20;99.90;;;;;;5015209;28;20787;-81
2022/05/09 09:05:23;;;;;;;11.00;3.53;;;37.60;99.90;;;;;;4995004;28;20441;-81
2022/05/09 09:08:03;;;;;;;12.80;3.85;;;36.70;99.90;;;;;;5011952;28;20017;-81
2022/05/09 09:10:42;;;;;;;8.48;3.63;;;35.70;99.90;;;;;;5005467;28;20028;-81
2022/05/09 09:13:32;;;;;;;6.45;2.92;;;38.60;99.90;;;;;;5022156;28;20072;-82
2022/05/09 09:16:18;;;;;;;9.43;3.00;;;37.70;99.90;;;;;;5041138;28;20097;-82
2022/05/09 09:19:22;;;;;;;7.65;2.75;;;40.20;99.90;;;;;;5018329;28;20029;-82
2022/05/09 09:22:08;;;;;;;10.25;3.58;;;39.40;99.90;;;;;;5031002;28;20501;-82
2022/05/09 09:24:50;;;;;;;5.00;2.60;;;36.00;99.90;;;;;;5014155;28;20431;-82
2022/05/09 09:27:22;;;;;;;7.00;2.30;;;38.50;99.90;;;;;;5012429;28;20034;-83
2022/05/09 09:29:55;;;;;;;8.15;2.30;;;40.40;99.90;;;;;;5013105;28;20497;-82
2022/05/09 09:32:22;;;;;;;10.07;2.58;;;39.30;99.90;;;;;;5051746;28;20025;-82
2022/05/09 09:34:57;;;;;;;8.20;2.40;;;40.20;99.90;;;;;;5051579;28;20170;-82
2022/05/09 09:37:51;;;;;;;7.50;2.60;;;38.60;99.90;;;;;;5033952;28;20029;-81
2022/05/09 09:40:17;;;;;;;6.93;2.47;;;36.80;99.90;;;;;;5051636;28;20468;-82
2022/05/09 09:42:43;;;;;;;6.70;2.38;;;35.90;99.90;;;;;;5051846;28;20017;-80
2022/05/09 09:45:27;;;;;;;8.20;2.35;;;38.30;99.90;;;;;;5051666;28;20032;-82
2022/05/09 09:48:19;;;;;;;8.45;2.80;;;38.70;99.90;;;;;;5051397;28;20053;-82
2022/05/09 09:51:03;;;;;;;5.78;1.92;;;39.40;99.90;;;;;;5051071;28;20110;-82
2022/05/09 09:53:51;;;;;;;4.97;2.40;;;40.00;99.90;;;;;;5010665;28;20527;-82
2022/05/09 09:56:20;;;;;;;6.17;2.20;;;40.40;99.90;;;;;;5013797;28;20052;-82
2022/05/09 09:58:52;;;;;;;5.50;2.28;;;40.90;99.90;;;;;;5031663;28;20080;-81
2022/05/09 10:01:22;;;;;;;7.78;2.22;;;40.50;99.90;;;;;;5013847;28;20030;-82
2022/05/09 10:04:09;;;;;;;8.18;2.30;;;41.20;99.90;;;;;;5013355;28;20021;-82
2022/05/09 10:06:54;;;;;;;8.35;2.40;;;41.00;99.90;;;;;;5028614;28;20036;-82
2022/05/09 10:09:21;;;;;;;8.50;2.58;;;38.90;99.90;;;;;;5012810;28;20026;-82
2022/05/09 10:11:47;;;;;;;5.70;2.30;;;40.10;99.90;;;;;;5009489;28;20025;-82
2022/05/09 10:14:31;;;;;;;6.45;2.20;;;40.80;99.90;;;;;;5016004;28;20045;-81
2022/05/09 10:17:12;;;;;;;7.38;2.13;;;40.10;99.90;;;;;;5009045;28;20083;-82
2022/05/09 10:19:38;;;;;;;8.10;2.70;;;38.90;99.90;;;;;;5016576;28;20376;-81
2022/05/09 10:25:03;;;;;;;4.10;2.33;;;39.90;99.90;;;;;;5024307;28;20032;-82
2022/05/09 10:27:31;;;;;;;8.38;2.72;;;37.90;99.90;;;;;;5021154;28;20114;-82
2022/05/09 10:30:18;;;;;;;7.20;2.40;;;40.10;99.90;;;;;;5013769;28;20104;-82
2022/05/09 10:33:03;;;;;;;9.95;2.50;;;41.20;99.90;;;;;;5012854;28;20444;-82
2022/05/09 10:35:34;;;;;;;9.77;2.70;;;39.50;99.90;;;;;;5014945;28;20441;-82
2022/05/09 10:38:05;;;;;;;6.50;2.45;;;39.40;99.90;;;;;;5013162;28;20032;-82
2022/05/09 10:41:03;;;;;;;6.57;2.50;;;40.40;99.90;;;;;;5023394;28;20400;-82
2022/05/09 10:44:03;;;;;;;8.60;2.80;;;40.80;99.90;;;;;;5014570;28;20358;-82
2022/05/09 10:46:53;;;;;;;7.85;2.60;;;39.10;99.90;;;;;;4983579;28;20101;-82
2022/05/09 10:49:21;;;;;;;8.15;3.25;;;39.40;99.90;;;;;;4996903;28;20469;-83
2022/05/09 10:52:16;;;;;;;11.18;2.47;;;39.00;99.90;;;;;;5004128;28;20046;-82
2022/05/09 10:54:50;;;;;;;6.43;2.28;;;38.40;99.90;;;;;;5017072;28;20029;-82
2022/05/09 10:57:38;;;;;;;5.63;2.25;;;37.40;99.90;;;;;;5035170;28;20021;-82
2022/05/09 11:00:18;;;;;;;5.88;2.53;;;34.70;99.90;;;;;;5035371;28;20025;-82
2022/05/09 11:02:52;;;;;;;7.05;2.50;;;32.40;99.90;;;;;;5034912;28;20037;-82
2022/05/09 11:05:17;;;;;;;6.32;2.55;;;30.70;99.90;;;;;;5034687;28;20484;-82
2022/05/09 11:08:05;;;;;;;8.88;2.33;;;29.90;99.90;;;;;;5028957;28;20056;-82
2022/05/09 11:10:43;;;;;;;7.28;2.60;;;28.90;99.90;;;;;;5038905;28;20028;-83
2022/05/09 11:13:30;;;;;;;5.20;2.60;;;26.40;99.90;;;;;;5022329;28;20033;-82
2022/05/09 11:16:09;;;;;;;6.30;2.60;;;24.90;99.90;;;;;;5016311;28;20121;-82
2022/05/09 11:19:12;;;;;;;8.00;2.73;;;24.70;99.90;;;;;;5016692;28;20022;-82
2022/05/09 11:21:50;;;;;;;7.63;2.65;;;25.30;99.90;;;;;;5017579;28;20256;-81
2022/05/09 11:24:35;;;;;;;8.15;2.45;;;26.20;99.90;;;;;;5016821;28;20026;-82
2022/05/09 11:27:25;;;;;;;6.28;2.50;;;25.10;99.90;;;;;;5013443;28;20175;-82
2022/05/09 11:30:15;;;;;;;7.47;2.78;;;26.20;99.90;;;;;;5013929;28;20022;-82
2022/05/09 11:32:42;;;;;;;5.07;2.38;;;26.20;99.90;;;;;;5019573;28;20022;-82
2022/05/09 11:35:29;;;;;;;8.77;2.53;;;25.80;99.90;;;;;;5034726;28;20034;-82
2022/05/09 11:37:59;;;;;;;6.60;2.30;;;26.40;99.90;;;;;;5036298;28;20044;-82
2022/05/09 11:40:30;;;;;;;8.52;2.78;;;26.10;99.90;;;;;;5054624;28;20480;-82
2022/05/09 11:43:37;;;;;;;8.10;3.03;;;25.70;99.90;;;;;;5038410;28;20047;-82
2022/05/09 11:46:26;;;;;;;8.35;2.47;;;24.60;99.90;;;;;;5039138;28;20028;-83
2022/05/09 11:49:25;;;;;;;4.10;2.08;;;25.60;99.90;;;;;;5035763;28;20056;-82
2022/05/09 11:51:55;;;;;;;6.70;2.33;;;25.90;99.90;;;;;;5045542;28;20431;-83
2022/05/09 11:54:32;;;;;;;10.32;2.65;;;25.60;99.90;;;;;;5015923;28;20038;-82
2022/05/09 11:57:29;;;;;;;6.32;2.20;;;25.90;99.90;;;;;;5033436;28;20049;-82
2022/05/09 11:59:58;;;;;;;5.80;2.42;;;26.20;99.90;;;;;;5024073;28;20111;-82
2022/05/09 12:02:43;;;;;;;2.90;1.70;;;26.10;99.90;;;;;;5033233;28;20022;-82
2022/05/09 12:05:31;;;;;;;6.25;2.20;;;26.30;99.90;;;;;;5033857;28;20473;-82
2022/05/09 12:08:08;;;;;;;4.72;2.28;;;25.30;99.90;;;;;;5035558;28;20155;-82
2022/05/09 12:10:38;;;;;;;4.85;2.10;;;25.70;99.90;;;;;;5035655;28;20072;-83
2022/05/09 12:13:06;;;;;;;7.38;1.98;;;25.90;99.90;;;;;;5018310;28;20029;-83
2022/05/09 12:15:33;;;;;;;7.07;2.53;;;25.90;99.90;;;;;;5040991;28;20432;-83
2022/05/09 12:17:58;;;;;;;7.38;2.05;;;26.10;99.90;;;;;;5038573;28;20448;-83
2022/05/09 12:20:27;;;;;;;7.97;2.15;;;25.60;99.90;;;;;;5033072;28;20028;-82
2022/05/09 12:23:00;;;;;;;6.13;1.87;;;25.50;99.90;;;;;;5028383;28;20026;-83
2022/05/09 12:25:41;;;;;;;8.43;2.08;;;25.40;99.90;;;;;;5024594;28;20060;-83
2022/05/09 12:28:30;;;;;;;4.45;1.95;;;25.90;99.90;;;;;;5029897;28;20045;-83
2022/05/09 12:31:00;;;;;;;8.57;2.55;;;25.70;99.90;;;;;;5015174;28;20066;-83
2022/05/09 12:33:50;;;;;;;6.57;1.98;;;25.40;99.90;;;;;;5033083;28;20029;-83
2022/05/09 12:36:28;;;;;;;7.60;2.10;;;26.10;99.90;;;;;;5032984;28;20100;-83
2022/05/09 12:39:16;;;;;;;7.03;2.38;;;26.00;99.90;;;;;;5028835;28;20063;-83
2022/05/09 12:41:45;;;;;;;5.85;2.17;;;25.90;99.90;;;;;;5047426;28;20067;-82
2022/05/09 12:44:16;;;;;;;7.70;2.60;;;25.80;99.90;;;;;;5031141;28;20021;-82
2022/05/09 12:46:46;;;;;;;5.30;2.55;;;26.10;99.90;;;;;;5015270;28;20118;-83
2022/05/09 12:49:13;;;;;;;;;;;25.90;99.90;;;;;;5019996;28;20060;-83
2022/05/09 12:51:45;;;;;;;7.18;2.10;;;25.90;99.90;;;;;;5011420;28;19917;-83
2022/05/09 12:54:14;;;;;;;7.68;2.55;;;25.30;99.90;;;;;;5020442;28;20049;-82
2022/05/09 12:57:01;;;;;;;6.20;2.20;;;24.10;99.90;;;;;;5033206;28;20033;-82
2022/05/09 12:59:42;;;;;;;5.90;2.47;;;25.40;99.90;;;;;;5032579;28;20523;-82
2022/05/09 13:02:08;;;;;;;6.95;2.70;;;25.00;99.90;;;;;;5032288;28;20021;-82
2022/05/09 13:04:36;;;;;;;5.82;2.45;;;24.30;99.90;;;;;;5038735;28;20500;-82
2022/05/09 13:07:04;;;;;;;7.55;2.38;;;24.70;99.90;;;;;;5051211;28;20063;-82
2022/05/09 13:09:34;;;;;;;5.20;2.15;;;25.50;99.90;;;;;;5034651;28;20116;-82
2022/05/09 13:12:13;;;;;;;5.20;2.10;;;25.60;99.90;;;;;;5053106;28;20419;-82
2022/05/09 13:14:51;;;;;;;4.53;2.10;;;26.00;99.90;;;;;;5051727;28;20053;-82
2022/05/09 13:17:37;;;;;;;8.00;2.10;;;25.50;99.90;;;;;;5017114;28;20029;-82
2022/05/09 13:20:08;;;;;;;4.45;2.05;;;25.10;99.90;;;;;;5011463;28;20552;-82